Latest Coastal Weather Observations for Karratha

IDW60701

Issued at 8:35 pm WST Monday 28 July 2014 (issued every 10 minutes, with the page automatically refreshed every 10 minutes)

About coastal observations | Map of coastal stations | Coastal observations for WA | Marine services | Other Formats
Station Details ID: 004083 Name: KARRATHA AERO Lat: -20.71 Lon: 116.77 Height: 5.3 m
Data from the previous 72 hours. | See also: Recent months at Karratha
Date/Time
WST
Temp

°C
Wind Pressure Rain
since 9am
mm
Weather Cloud Vis
km
Sea
Height
m
Swell
Dir
 
Speed
knots
Gust
knots
hPa Trend Height
m
Period
s
Dir
28/08:30pm 22.2 W 6 8 1018.2 - 0.0 - - 10 - - - -
28/08:00pm 22.1 WNW 6 7 1018.1 - 0.0 - - 10 - - - -
28/07:30pm 22.5 WNW 7 8 1018.0 - 0.0 - - 10 - - - -
28/07:00pm 23.1 NW 6 7 1017.7 - 0.0 - - 10 - - - -
28/06:30pm 23.6 WNW 7 9 1017.4 - 0.0 - - 10 - - - -
28/06:00pm 24.5 WNW 7 9 1016.9 - 0.0 - - 10 - - - -
28/05:30pm 25.5 WNW 8 9 1016.6 - 0.0 - - 10 - - - -
28/05:00pm 25.6 NNW 7 9 1016.4 - 0.0 - - 10 - - - -
28/04:30pm 26.7 N 9 13 1016.3 - 0.0 - - 10 - - - -
28/04:00pm 27.4 N 8 11 1016.1 - 0.0 - - 10 - - - -
28/03:30pm 28.5 NNE 9 12 1016.1 - 0.0 - - 10 - - - -
28/03:00pm 28.7 NNE 9 11 1016.2 - 0.0 - - 10 - - - -
28/02:30pm 30.1 NNW 6 8 1016.3 - 0.0 - - 10 - - - -
28/02:00pm 29.9 NNW 5 8 1016.6 - 0.0 - - 10 - - - -
28/01:30pm 29.9 NNE 9 11 1017.3 - 0.0 - - 10 - - - -
28/01:00pm 30.1 NNW 6 10 1017.7 - 0.0 - - 10 - - - -
28/12:30pm 30.1 NW 5 7 1018.1 - 0.0 - - 10 - - - -
28/12:00pm 29.7 W 6 9 1018.6 - 0.0 - - 10 - - - -
28/11:30am 30.4 S 3 7 1018.9 - 0.0 - - 10 - - - -
28/11:00am 29.1 SSE 6 9 1019.3 - 0.0 - - 10 - - - -
28/10:30am 29.0 SSE 9 11 1019.5 - 0.0 - - 10 - - - -
28/10:00am 28.1 SSE 9 11 1019.8 - 0.0 - - 10 - - - -
28/09:30am 25.9 S 6 11 1019.9 - 0.0 - - 10 - - - -
28/09:00am 23.8 SSW 8 11 1019.9 - 0.0 - - 10 - - - -
28/08:30am 22.2 SSW 7 9 1019.6 - 0.0 - - 10 - - - -
28/08:00am 19.1 WSW 9 11 1019.6 - 0.0 - - 10 - - - -
28/07:30am 16.2 SW 6 6 1019.5 - 0.0 - - 10 - - - -
28/07:00am 13.6 NNE 1 5 1019.4 - 0.0 - - 10 - - - -
28/06:30am 12.8 E 1 4 1019.1 - 0.0 - - 10 - - - -
28/06:00am 13.0 E 1 4 1018.8 - 0.0 - - 10 - - - -
28/05:30am 14.4 WSW 4 5 1018.6 - 0.0 - - 10 - - - -
28/05:00am 15.3 WSW 7 8 1018.5 - 0.0 - - 10 - - - -
28/04:30am 15.3 NW 5 7 1018.4 - 0.0 - - 10 - - - -
28/04:00am 15.7 W 6 7 1018.2 - 0.0 - - 10 - - - -
28/03:30am 14.6 SSW 5 7 1018.2 - 0.0 - - 10 - - - -
28/03:00am 15.6 SW 8 9 1018.3 - 0.0 - - 10 - - - -
28/02:30am 14.2 SW 6 8 1018.5 - 0.0 - - 10 - - - -
28/02:00am 16.4 W 3 4 1018.7 - 0.0 - - 10 - - - -
28/01:30am 15.8 SW 5 6 1018.9 - 0.0 - - 10 - - - -
28/01:00am 15.4 SW 3 4 1019.0 - 0.0 - - 10 - - - -
28/12:47am 15.9 SSW 4 5 1019.0 - 0.0 - - 10 - - - -
28/12:30am 15.4 SSW 4 6 1019.3 - 0.0 - - 5 - - - -
28/12:29am 15.2 S 5 6 1019.3 - 0.0 - - 5 - - - -
28/12:00am 16.6 SW 4 5 1019.5 - 0.0 - - 10 - - - -
 
Date/Time
WST
Temp

°C
Wind Pressure Rain
since 9am
mm
Weather Cloud Vis
km
Sea
Height
m
Swell
Dir
 
Speed
knots
Gust
knots
hPa Trend Height
m
Period
s
Dir
27/11:30pm 19.1 W 5 7 1019.5 - 0.0 - - 10 - - - -
27/11:00pm 19.4 WNW 6 8 1019.6 - 0.0 - - 10 - - - -
27/10:30pm 17.4 SSW 8 9 1019.5 - 0.0 - - 10 - - - -
27/10:00pm 17.7 W 4 5 1019.6 - 0.0 - - 10 - - - -
27/09:30pm 17.4 SW 8 9 1019.6 - 0.0 - - 10 - - - -
27/09:00pm 17.6 WSW 4 6 1019.6 - 0.0 - - 10 - - - -
27/08:30pm 19.3 WSW 7 8 1019.6 - 0.0 - - 10 - - - -
27/08:00pm 20.2 W 5 6 1019.4 - 0.0 - - 10 - - - -
27/07:30pm 20.5 W 6 7 1019.2 - 0.0 - - 10 - - - -
27/07:00pm 21.8 W 6 7 1019.0 - 0.0 - - 10 - - - -
27/06:30pm 22.5 W 7 8 1018.5 - 0.0 - - 10 - - - -
27/06:00pm 23.5 W 6 8 1018.4 - 0.0 - - 10 - - - -
27/05:30pm 24.8 WSW 7 8 1018.2 - 0.0 - - 10 - - - -
27/05:00pm 26.1 W 6 8 1018.0 - 0.0 - - 10 - - - -
27/04:30pm 26.8 W 4 7 1017.9 - 0.0 - - 10 - - - -
27/04:00pm 26.8 N 5 7 1017.9 - 0.0 - - 10 - - - -
27/03:30pm 26.6 N 7 9 1017.9 - 0.0 - - 10 - - - -
27/03:00pm 26.7 NNE 10 13 1017.9 - 0.0 - - 10 - - - -
27/02:30pm 26.7 NNE 10 14 1017.9 - 0.0 - - 10 - - - -
27/02:00pm 26.6 NNE 10 14 1018.1 - 0.0 - - 10 - - - -
27/01:30pm 26.1 NNE 11 13 1018.4 - 0.0 - - 10 - - - -
27/01:00pm 27.1 NNE 9 12 1018.6 - 0.0 - - 10 - - - -
27/12:30pm 26.6 NE 8 10 1019.1 - 0.0 - - 10 - - - -
27/12:00pm 26.3 NE 9 12 1019.6 - 0.0 - - 10 - - - -
27/11:30am 26.5 ENE 8 11 1019.9 - 0.0 - - 10 - - - -
27/11:00am 25.7 ENE 6 9 1020.3 - 0.0 - - 10 - - - -
27/10:30am 25.3 E 6 9 1020.7 - 0.0 - - 10 - - - -
27/10:00am 24.3 E 5 6 1021.1 - 0.0 - - 10 - - - -
27/09:30am 22.6 SE 5 7 1021.4 - 0.0 - - 10 - - - -
27/09:00am 20.8 S 6 7 1021.4 - 0.0 - - 10 - - - -
27/08:30am 18.2 S 6 8 1021.2 - 0.0 - - 10 - - - -
27/08:00am 15.7 SW 5 7 1020.9 - 0.0 - - 10 - - - -
27/07:30am 12.5 S 5 7 1020.7 - 0.0 - - 10 - - - -
27/07:00am 10.5 S 7 8 1020.4 - 0.0 - - 10 - - - -
27/06:30am 10.6 S 6 8 1020.3 - 0.0 - - 10 - - - -
27/06:00am 11.2 SW 5 8 1020.4 - 0.0 - - 10 - - - -
27/05:30am 11.4 S 6 7 1020.0 - 0.0 - - 10 - - - -
27/05:00am 10.6 SSW 7 10 1019.9 - 0.0 - - 10 - - - -
27/04:30am 11.2 S 8 8 1019.7 - 0.0 - - 10 - - - -
27/04:00am 12.0 S 8 9 1019.7 - 0.0 - - 10 - - - -
27/03:30am 10.5 S 5 6 1019.8 - 0.0 - - 10 - - - -
27/03:00am 10.3 S 6 7 1019.6 - 0.0 - - 10 - - - -
27/02:30am 12.0 SSW 3 5 1019.7 - 0.0 - - 10 - - - -
27/02:00am 12.6 SSW 1 5 1019.8 - 0.0 - - 10 - - - -
27/01:30am 13.8 CALM 0 3 1020.0 - 0.0 - - 10 - - - -
27/01:00am 13.5 S 4 5 1019.9 - 0.0 - - 10 - - - -
27/12:30am 13.2 S 4 5 1020.1 - 0.0 - - 10 - - - -
27/12:00am 13.2 SSW 6 7 1020.2 - 0.0 - - 10 - - - -
 
Date/Time
WST
Temp

°C
Wind Pressure Rain
since 9am
mm
Weather Cloud Vis
km
Sea
Height
m
Swell
Dir
 
Speed
knots
Gust
knots
hPa Trend Height
m
Period
s
Dir
26/11:30pm 13.8 WSW 7 9 1020.3 - 0.0 - - 10 - - - -
26/11:00pm 13.3 S 4 6 1020.3 - 0.0 - - 10 - - - -
26/10:30pm 13.1 S 4 5 1020.5 - 0.0 - - 10 - - - -
26/10:00pm 13.6 SSE 1 4 1020.4 - 0.0 - - 10 - - - -
26/09:30pm 14.7 CALM 0 0 1020.3 - 0.0 - - 10 - - - -
26/09:00pm 14.7 CALM 0 0 1020.1 - 0.0 - - 10 - - - -
26/08:30pm 14.5 SSE 1 3 1020.0 - 0.0 - - 10 - - - -
26/08:00pm 15.3 SSE 3 4 1019.8 - 0.0 - - 10 - - - -
26/07:30pm 16.5 E 5 6 1019.6 - 0.0 - - 10 - - - -
26/07:00pm 17.7 E 4 5 1019.5 - 0.0 - - 10 - - - -
26/06:30pm 17.9 NE 4 4 1019.4 - 0.0 - - 10 - - - -
26/06:00pm 19.3 NE 5 5 1019.4 - 0.0 - - 10 - - - -
26/05:30pm 21.3 NNE 7 9 1019.2 - 0.0 - - 10 - - - -
26/05:00pm 22.2 NNE 9 12 1019.2 - 0.0 - - 10 - - - -
26/04:30pm 23.0 NE 11 14 1019.1 - 0.0 - - 10 - - - -
26/04:00pm 23.8 NE 11 15 1019.3 - 0.0 - - 10 - - - -
26/03:30pm 23.9 NE 10 14 1019.2 - 0.0 - - 10 - - - -
26/03:00pm 24.8 NE 11 14 1019.1 - 0.0 - - 10 - - - -
26/02:30pm 24.7 ENE 12 16 1019.3 - 0.0 - - 10 - - - -
26/02:00pm 24.5 ENE 13 16 1019.5 - 0.0 - - 10 - - - -
26/01:30pm 24.7 ENE 13 17 1019.8 - 0.0 - - 10 - - - -
26/01:00pm 24.6 ENE 14 18 1020.1 - 0.0 - - 10 - - - -
26/12:30pm 23.8 ENE 13 15 1020.5 - 0.0 - - 10 - - - -
26/12:00pm 23.7 ENE 12 15 1021.1 - 0.0 - - 10 - - - -
26/11:30am 23.0 ENE 13 16 1021.4 - 0.0 - - 10 - - - -
26/11:00am 23.0 ENE 11 16 1021.8 - 0.0 - - 10 - - - -
26/10:30am 22.1 ENE 9 13 1022.2 - 0.0 - - 10 - - - -
26/10:00am 21.7 E 10 13 1022.5 - 0.0 - - 10 - - - -
26/09:30am 19.8 ENE 6 9 1022.5 - 0.0 - - 10 - - - -
26/09:00am 18.2 NE 4 5 1022.4 - 0.0 - - 10 - - - -
26/08:30am 16.5 CALM 0 0 1022.0 - 0.0 - - 10 - - - -
26/08:00am 13.6 S 4 5 1021.4 - 0.0 - - 10 - - - -
26/07:30am 10.5 S 4 6 1021.0 - 0.0 - - 10 - - - -
26/07:00am 8.7 S 6 7 1020.9 - 0.0 - - 10 - - - -
26/06:30am 9.8 CALM 0 0 1020.5 - 0.0 - - 10 - - - -
26/06:00am 10.1 CALM 0 0 1020.1 - 0.0 - - 10 - - - -
26/05:30am 9.5 CALM 0 0 1019.8 - 0.0 - - 10 - - - -
26/05:00am 8.7 SSE 7 7 1019.2 - 0.0 - - 10 - - - -
26/04:30am 8.6 S 7 8 1019.2 - 0.0 - - 10 - - - -
26/04:00am 8.9 S 9 9 1019.2 - 0.0 - - 10 - - - -
26/03:30am 9.2 S 8 9 1019.1 - 0.0 - - 10 - - - -
26/03:00am 9.5 S 4 5 1019.2 - 0.0 - - 10 - - - -
26/02:30am 9.7 SSE 3 5 1019.4 - 0.0 - - 10 - - - -
26/02:00am 9.6 S 5 6 1019.5 - 0.0 - - 10 - - - -
26/01:30am 10.7 S 9 9 1019.7 - 0.0 - - 10 - - - -
26/01:00am 10.2 S 8 8 1020.0 - 0.0 - - 10 - - - -
26/12:30am 10.1 S 8 8 1020.2 - 0.0 - - 10 - - - -
26/12:00am 10.9 S 9 9 1020.3 - 0.0 - - 10 - - - -
 
Date/Time
WST
Temp

°C
Wind Pressure Rain
since 9am
mm
Weather Cloud Vis
km
Sea
Height
m
Swell
Dir
 
Speed
knots
Gust
knots
hPa Trend Height
m
Period
s
Dir
25/11:30pm 11.2 S 9 10 1020.2 - 0.0 - - 10 - - - -
25/11:00pm 11.5 S 9 10 1020.3 - 0.0 - - 10 - - - -
25/10:30pm 11.5 S 8 9 1020.6 - 0.0 - - 10 - - - -
25/10:00pm 12.3 S 9 10 1020.7 - 0.0 - - 10 - - - -
25/09:30pm 12.3 SSE 5 5 1020.5 - 0.0 - - 10 - - - -
25/09:00pm 12.8 SSE 4 6 1020.4 - 0.0 - - 10 - - - -

Other Formats:

Comma delimited format used in spreadsheet applications
http://www.bom.gov.au/fwo/IDW60701/IDW60701.95307.axf

JavaScript Object Notation format (JSON) in row-major order
http://www.bom.gov.au/fwo/IDW60701/IDW60701.95307.json